Time;durP1;ratioP1;P1;durP2;ratioP2;P2;SDS_P1;SDS_P2;PMS_P1;PMS_P2;Temp;Humidity;BMP_temperature;BMP_pressure;BME280_temperature;BME280_humidity;BME280_pressure;Samples;Min_cycle;Max_cycle;Signal;HPM_P1;HPM_P2
2023/10/21 00:02:22;;;;;;;3.00;2.03;;;;;;;11.28;100.00;93908.66;6311325;22;19999;-82
2023/10/21 00:04:47;;;;;;;1.77;1.50;;;;;;;11.29;100.00;93915.56;6310324;22;20019;-82
2023/10/21 00:07:13;;;;;;;2.13;1.60;;;;;;;11.27;100.00;93917.59;6311038;22;19996;-82
2023/10/21 00:09:38;;;;;;;2.63;1.40;;;;;;;11.27;100.00;93917.59;6309589;22;19999;-82
2023/10/21 00:12:06;;;;;;;3.35;1.80;;;;;;;11.26;100.00;93927.28;6283277;22;20032;-82
2023/10/21 00:14:32;;;;;;;7.55;2.03;;;;;;;11.27;100.00;93928.13;6311000;22;19995;-82
2023/10/21 00:16:57;;;;;;;3.05;1.50;;;;;;;11.28;100.00;93927.13;6310358;22;19999;-82
2023/10/21 00:19:23;;;;;;;3.03;1.90;;;;;;;11.29;100.00;93918.19;6310628;22;19999;-81
2023/10/21 00:21:49;;;;;;;4.45;2.40;;;;;;;11.28;100.00;93917.41;6309851;22;19995;-81
2023/10/21 00:24:15;;;;;;;4.32;2.05;;;;;;;11.29;100.00;93910.31;6311209;22;20050;-82
2023/10/21 00:26:48;;;;;;;1.80;1.70;;;;;;;11.31;100.00;93908.28;6283483;22;20400;-81
2023/10/21 00:29:15;;;;;;;4.30;2.42;;;;;;;11.47;100.00;93857.13;6310579;22;20060;-83
2023/10/21 00:31:44;;;;;;;1.83;1.73;;;;;;;11.34;100.00;93863.13;6311015;22;19999;-82
2023/10/21 00:34:10;;;;;;;3.95;1.80;;;;;;;11.29;100.00;93870.78;6310598;22;20003;-82
2023/10/21 00:36:36;;;;;;;1.65;1.55;;;;;;;11.31;100.00;93881.94;6283480;22;20425;-82
2023/10/21 00:39:02;;;;;;;1.80;1.70;;;;;;;11.29;100.00;93881.31;6311378;22;20027;-81
2023/10/21 00:41:28;;;;;;;7.30;2.05;;;;;;;11.28;100.00;93879.69;6310371;22;19999;-82
2023/10/21 00:43:53;;;;;;;4.82;2.00;;;;;;;11.25;100.00;93880.06;6310232;22;20568;-82
2023/10/21 00:46:19;;;;;;;2.28;1.70;;;;;;;11.24;100.00;93884.53;6310925;22;19992;-81
2023/10/21 00:48:46;;;;;;;3.30;1.90;;;;;;;11.25;100.00;93882.72;6310511;22;20348;-82
2023/10/21 00:51:12;;;;;;;3.22;1.73;;;;;;;11.24;100.00;93887.16;6283758;22;20003;-82
2023/10/21 00:53:38;;;;;;;1.65;1.50;;;;;;;11.29;100.00;93886.59;6310565;22;20428;-83
2023/10/21 00:56:06;;;;;;;1.58;1.48;;;;;;;11.28;100.00;93887.59;6283697;22;20039;-82
2023/10/21 00:58:31;;;;;;;2.53;1.58;;;;;;;11.28;100.00;93884.97;6310039;22;20007;-83
2023/10/21 01:01:06;;;;;;;1.83;1.65;;;;;;;11.26;100.00;93874.59;6309991;22;20036;-82
2023/10/21 01:03:33;;;;;;;5.10;1.63;;;;;;;11.25;100.00;93872.97;6310502;22;20026;-82
2023/10/21 01:05:59;;;;;;;2.40;1.40;;;;;;;11.25;100.00;93870.34;6310302;22;19991;-82
2023/10/21 01:08:26;;;;;;;4.65;2.17;;;;;;;11.25;100.00;93866.91;6310732;22;20096;-82
2023/10/21 01:10:51;;;;;;;2.95;2.03;;;;;;;11.24;100.00;93876.63;6310277;22;20057;-82
2023/10/21 01:13:17;;;;;;;2.28;1.63;;;;;;;11.25;100.00;93880.06;6310309;22;19999;-82
2023/10/21 01:15:43;;;;;;;3.35;1.55;;;;;;;11.23;100.00;93874.19;6309682;22;20075;-82
2023/10/21 01:18:08;;;;;;;4.00;1.45;;;;;;;11.22;100.00;93877.84;6310696;22;20253;-82
2023/10/21 01:20:39;;;;;;;6.63;1.50;;;;;;;11.20;100.00;93885.91;6310031;22;20026;-82
2023/10/21 01:23:04;;;;;;;1.73;1.30;;;;;;;11.20;100.00;93887.75;6310550;22;20010;-82
2023/10/21 01:25:32;;;;;;;2.67;1.83;;;;;;;11.16;100.00;93893.41;6309845;22;19995;-82
2023/10/21 01:27:58;;;;;;;3.25;1.70;;;;;;;11.15;100.00;93893.56;6309979;22;20003;-82
2023/10/21 01:30:23;;;;;;;2.47;1.45;;;;;;;11.12;100.00;93902.66;6308677;22;20003;-82
2023/10/21 01:32:49;;;;;;;3.17;1.60;;;;;;;11.16;100.00;93897.84;6310397;22;19999;-82
2023/10/21 01:35:15;;;;;;;2.58;1.60;;;;;;;11.16;100.00;93887.31;6309211;22;20020;-82
2023/10/21 01:37:42;;;;;;;2.60;1.65;;;;;;;11.16;100.00;93895.19;6310346;22;19999;-81
2023/10/21 01:40:10;;;;;;;6.03;1.77;;;;;;;11.14;100.00;93895.38;6309468;22;19999;-82
2023/10/21 01:42:39;;;;;;;2.72;1.67;;;;;;;11.15;100.00;93898.84;6309843;22;19995;-82
2023/10/21 01:45:05;;;;;;;2.90;1.38;;;;;;;11.16;100.00;93897.84;6283141;22;20003;-82
2023/10/21 01:47:31;;;;;;;1.58;1.38;;;;;;;11.16;100.00;93897.84;6282883;22;20429;-82
2023/10/21 01:49:58;;;;;;;2.13;1.80;;;;;;;11.26;100.00;93908.06;6309998;22;20003;-82
2023/10/21 01:52:24;;;;;;;3.20;1.40;;;;;;;11.22;100.00;93909.44;6310981;22;20590;-82
2023/10/21 01:54:50;;;;;;;3.00;1.65;;;;;;;11.19;100.00;93915.88;6310503;22;20026;-81
2023/10/21 01:57:16;;;;;;;2.65;1.60;;;;;;;11.22;100.00;93914.72;6309443;22;20000;-82
2023/10/21 01:59:42;;;;;;;6.60;1.60;;;;;;;11.20;100.00;93920.16;6283038;22;19998;-82
2023/10/21 02:02:07;;;;;;;3.17;1.55;;;;;;;11.20;100.00;93911.44;6309879;22;20368;-81
2023/10/21 02:04:33;;;;;;;4.10;1.83;;;;;;;11.16;100.00;93917.09;6309452;22;20015;-81
2023/10/21 02:06:58;;;;;;;2.15;1.30;;;;;;;11.15;100.00;93912.00;6309704;22;20018;-81
2023/10/21 02:09:24;;;;;;;1.50;1.40;;;;;;;11.15;100.00;93925.97;6309809;22;20408;-81
2023/10/21 02:11:51;;;;;;;4.55;1.50;;;;;;;11.14;100.00;93919.09;6282694;22;20003;-81
2023/10/21 02:14:17;;;;;;;3.25;1.63;;;;;;;11.17;100.00;93926.63;6309300;22;20363;-82
2023/10/21 02:16:42;;;;;;;2.97;1.30;;;;;;;11.17;100.00;93916.09;6282780;22;20007;-81
2023/10/21 02:19:08;;;;;;;3.50;1.60;;;;;;;11.25;100.00;93922.22;6310539;22;20073;-81
2023/10/21 02:21:33;;;;;;;6.25;1.67;;;;;;;11.20;100.00;93922.78;6310219;22;20010;-81
2023/10/21 02:23:59;;;;;;;1.60;1.50;;;;;;;11.26;100.00;93923.84;6309560;22;20051;-81
2023/10/21 02:26:24;;;;;;;2.78;1.60;;;;;;;11.23;100.00;93922.41;6310301;22;19991;-80
2023/10/21 02:28:50;;;;;;;2.55;1.50;;;;;;;11.15;100.00;93933.06;6282454;22;20003;-81
2023/10/21 02:31:15;;;;;;;5.43;2.05;;;;;;;11.14;100.00;93934.09;6309203;22;20003;-82
2023/10/21 02:33:41;;;;;;;3.60;1.50;;;;;;;11.12;100.00;93944.78;6309863;22;20033;-81
2023/10/21 02:36:06;;;;;;;3.28;1.52;;;;;;;11.13;100.00;93962.22;6310033;22;20006;-81
2023/10/21 02:38:31;;;;;;;1.75;1.42;;;;;;;11.09;100.00;93968.88;6308047;22;20094;-81
2023/10/21 02:40:57;;;;;;;3.20;1.75;;;;;;;11.08;100.00;93979.63;6309569;22;20007;-82
2023/10/21 02:43:24;;;;;;;4.43;1.45;;;;;;;11.10;100.00;93978.41;6309216;22;20405;-82
2023/10/21 02:45:49;;;;;;;1.88;1.50;;;;;;;11.11;100.00;93966.88;6308837;22;20002;-82
2023/10/21 02:48:15;;;;;;;3.20;1.35;;;;;;;11.11;100.00;93963.44;6310100;22;19995;-83
2023/10/21 02:50:40;;;;;;;2.45;1.50;;;;;;;11.10;100.00;93977.59;6309328;22;20007;-83
2023/10/21 02:53:07;;;;;;;2.70;1.60;;;;;;;11.12;100.00;93970.34;6309965;22;19996;-83
2023/10/21 02:55:32;;;;;;;3.30;1.70;;;;;;;11.12;100.00;93970.34;6309871;22;20309;-83
2023/10/21 02:57:57;;;;;;;3.45;1.50;;;;;;;11.08;100.00;93964.63;6306949;22;20003;-83
2023/10/21 03:00:23;;;;;;;2.17;1.30;;;;;;;11.05;100.00;93972.91;6308285;22;20013;-82
2023/10/21 03:02:48;;;;;;;1.88;1.40;;;;;;;11.04;100.00;93968.63;6308830;22;20003;-83
2023/10/21 03:05:16;;;;;;;1.58;1.40;;;;;;;11.06;100.00;93974.53;6307804;22;20015;-83
2023/10/21 03:07:42;;;;;;;4.70;1.85;;;;;;;11.05;100.00;93986.06;6309323;22;20011;-82
2023/10/21 03:10:08;;;;;;;2.30;2.20;;;;;;;11.06;100.00;93984.25;6308997;22;20003;-83
2023/10/21 03:12:34;;;;;;;3.85;3.10;;;;;;;11.09;100.00;93992.56;6309288;22;19999;-83
2023/10/21 03:15:00;;;;;;;4.05;2.75;;;;;;;11.09;100.00;93991.78;6309993;22;20427;-83
2023/10/21 03:17:26;;;;;;;6.22;3.60;;;;;;;11.11;100.00;93990.56;6309068;22;20014;-82
2023/10/21 03:19:54;;;;;;;5.40;4.90;;;;;;;11.09;100.00;93992.56;6309506;22;20011;-82
2023/10/21 03:22:19;;;;;;;5.85;4.53;;;;;;;11.09;100.00;93989.94;6282529;22;20052;-82
2023/10/21 03:24:45;;;;;;;3.38;3.17;;;;;;;11.15;100.00;93986.56;6309693;22;20051;-83
2023/10/21 03:27:13;;;;;;;3.08;2.88;;;;;;;11.18;100.00;93985.38;6308877;22;20248;-83
2023/10/21 03:29:39;;;;;;;2.60;2.50;;;;;;;11.11;100.00;93989.78;6282878;22;20014;-82
2023/10/21 03:32:05;;;;;;;3.50;3.30;;;;;;;11.07;100.00;93986.69;6282085;22;20003;-83
2023/10/21 03:34:32;;;;;;;2.50;2.30;;;;;;;11.03;100.00;93988.88;6311019;22;20073;-83
2023/10/21 03:36:59;;;;;;;2.55;1.73;;;;;;;11.02;100.00;93997.78;6310968;22;19995;-82
2023/10/21 03:39:26;;;;;;;3.97;3.13;;;;;;;11.02;100.00;94003.03;6311668;22;20010;-82
2023/10/21 03:41:51;;;;;;;4.35;2.40;;;;;;;11.02;100.00;94003.03;6311210;22;20329;-83
2023/10/21 03:44:17;;;;;;;1.88;1.60;;;;;;;11.01;100.00;94000.59;6311044;22;20010;-81
2023/10/21 03:46:42;;;;;;;3.03;1.33;;;;;;;11.02;100.00;94010.94;6310968;22;20139;-82
2023/10/21 03:49:08;;;;;;;2.83;1.35;;;;;;;11.02;100.00;94012.78;6311760;22;20071;-82
2023/10/21 03:51:33;;;;;;;3.00;1.52;;;;;;;10.99;100.00;94011.31;6311250;22;20294;-82
2023/10/21 03:54:01;;;;;;;3.78;1.35;;;;;;;11.01;100.00;94001.41;6284424;22;20392;-82
2023/10/21 03:56:27;;;;;;;4.10;1.40;;;;;;;10.98;100.00;94006.25;6310608;22;20080;-83
2023/10/21 03:58:52;;;;;;;1.92;1.83;;;;;;;10.98;100.00;94014.16;6284123;22;19999;-82
2023/10/21 04:01:20;;;;;;;2.08;1.55;;;;;;;10.98;100.00;94019.41;6311229;22;20382;-82
2023/10/21 04:03:46;;;;;;;3.28;1.80;;;;;;;10.97;100.00;94029.13;6311054;22;20051;-82
2023/10/21 04:06:13;;;;;;;4.55;1.45;;;;;;;10.96;100.00;94032.75;6310952;22;20002;-82
2023/10/21 04:08:39;;;;;;;1.38;1.38;;;;;;;10.96;100.00;94048.56;6311150;22;19999;-82
2023/10/21 04:11:04;;;;;;;1.63;1.50;;;;;;;11.02;100.00;94044.38;6310419;22;20067;-82
2023/10/21 04:13:30;;;;;;;1.60;1.50;;;;;;;11.04;100.00;94056.34;6281341;22;19999;-82
2023/10/21 04:15:55;;;;;;;1.52;1.40;;;;;;;10.96;100.00;94058.28;6309961;22;20003;-82
2023/10/21 04:18:21;;;;;;;1.35;1.27;;;;;;;10.94;100.00;94065.53;6309403;22;20003;-82
2023/10/21 04:20:46;;;;;;;1.73;1.27;;;;;;;10.89;100.00;94060.81;6310679;22;20023;-82
2023/10/21 04:23:12;;;;;;;1.38;1.27;;;;;;;10.87;100.00;94063.63;6310849;22;19995;-82
2023/10/21 04:25:37;;;;;;;3.25;1.70;;;;;;;10.90;100.00;94065.09;6311211;22;20298;-82
2023/10/21 04:28:03;;;;;;;1.85;1.75;;;;;;;10.88;100.00;94056.56;6283630;22;20067;-82
2023/10/21 04:30:29;;;;;;;3.33;2.53;;;;;;;10.87;100.00;94065.47;6283297;22;20019;-81
2023/10/21 04:32:55;;;;;;;3.50;2.22;;;;;;;10.85;100.00;94059.56;6311120;22;20010;-81
2023/10/21 04:35:20;;;;;;;4.22;2.90;;;;;;;10.83;100.00;94057.09;6310573;22;20006;-81
2023/10/21 04:37:46;;;;;;;1.88;1.77;;;;;;;10.81;100.00;94055.66;6311287;22;20000;-81
2023/10/21 04:40:15;;;;;;;2.55;1.95;;;;;;;10.82;100.00;94055.47;6283443;22;20375;-81
2023/10/21 04:42:41;;;;;;;3.33;1.60;;;;;;;10.82;100.00;94070.44;6283521;22;20424;-81
2023/10/21 04:45:08;;;;;;;2.60;1.67;;;;;;;10.80;100.00;94068.00;6282727;22;19999;-81
2023/10/21 04:47:33;;;;;;;1.50;1.40;;;;;;;10.83;100.00;94070.28;6283800;22;20006;-81
2023/10/21 04:49:59;;;;;;;3.50;1.30;;;;;;;10.79;100.00;94074.28;6310405;22;20476;-81
2023/10/21 04:52:24;;;;;;;1.30;1.20;;;;;;;10.79;100.00;94076.06;6311677;22;20297;-82
2023/10/21 04:54:50;;;;;;;1.50;1.40;;;;;;;10.78;100.00;94074.44;6311119;22;20364;-82
2023/10/21 04:57:16;;;;;;;1.80;1.42;;;;;;;10.78;100.00;94075.28;6310097;22;20074;-82
2023/10/21 04:59:42;;;;;;;2.88;1.30;;;;;;;10.74;100.00;94074.00;6310486;22;20121;-82
2023/10/21 05:02:07;;;;;;;1.40;1.27;;;;;;;10.72;100.00;94081.25;6310344;22;20030;-82
2023/10/21 05:04:34;;;;;;;4.07;1.30;;;;;;;10.72;100.00;94081.25;6310218;22;20435;-82
2023/10/21 05:06:59;;;;;;;3.88;1.27;;;;;;;10.72;100.00;94075.97;6310219;22;19995;-81
2023/10/21 05:09:25;;;;;;;0.90;0.90;;;;;;;10.73;100.00;94082.91;6310157;22;20029;-81
2023/10/21 05:11:50;;;;;;;4.60;1.25;;;;;;;10.74;100.00;94092.44;6282412;22;20031;-82
2023/10/21 05:14:16;;;;;;;1.92;1.30;;;;;;;10.95;100.00;94091.69;6283661;22;20415;-81
2023/10/21 05:16:41;;;;;;;1.77;1.60;;;;;;;11.01;100.00;94098.84;6310401;22;20018;-82
2023/10/21 05:19:06;;;;;;;4.57;1.50;;;;;;;10.83;100.00;94103.66;6310136;22;20003;-82
2023/10/21 05:21:32;;;;;;;2.83;1.60;;;;;;;10.71;100.00;94105.94;6283609;22;20026;-82
2023/10/21 05:23:58;;;;;;;4.97;1.58;;;;;;;10.65;100.00;94112.75;6309046;22;20004;-82
2023/10/21 05:26:26;;;;;;;2.20;1.38;;;;;;;10.59;100.00;94119.56;6309455;22;19991;-82
2023/10/21 05:28:51;;;;;;;1.02;1.02;;;;;;;10.59;100.00;94116.09;6309970;22;20287;-82
2023/10/21 05:31:17;;;;;;;1.10;1.10;;;;;;;10.60;100.00;94123.81;6308640;22;20022;-81
2023/10/21 05:33:42;;;;;;;3.22;1.30;;;;;;;10.57;100.00;94118.94;6309797;22;20022;-82
2023/10/21 05:36:08;;;;;;;2.30;1.67;;;;;;;10.55;100.00;94133.25;6310608;22;20075;-81
2023/10/21 05:38:34;;;;;;;2.45;1.55;;;;;;;10.54;100.00;94131.63;6310227;22;20027;-81
2023/10/21 05:40:59;;;;;;;1.63;1.48;;;;;;;10.54;100.00;94148.22;6310058;22;19999;-82
2023/10/21 05:43:24;;;;;;;2.65;1.35;;;;;;;10.55;100.00;94155.13;6282693;22;20031;-81
2023/10/21 05:45:50;;;;;;;2.22;1.40;;;;;;;10.54;100.00;94168.44;6282117;22;20014;-81
2023/10/21 05:48:15;;;;;;;2.50;1.30;;;;;;;10.55;100.00;94177.97;6309409;22;20003;-81
2023/10/21 05:50:41;;;;;;;1.58;1.40;;;;;;;10.54;100.00;94184.25;6310143;22;20003;-82
2023/10/21 05:53:06;;;;;;;5.30;1.90;;;;;;;10.55;100.00;94186.72;6309573;22;20057;-81
2023/10/21 05:55:33;;;;;;;2.22;2.00;;;;;;;10.57;100.00;94195.25;6309460;22;20067;-81
2023/10/21 05:57:58;;;;;;;2.38;2.05;;;;;;;10.56;100.00;94209.41;6309368;22;20326;-81
2023/10/21 06:00:25;;;;;;;2.10;1.75;;;;;;;10.57;100.00;94204.94;6309685;22;20465;-81
2023/10/21 06:02:51;;;;;;;2.72;2.00;;;;;;;10.56;100.00;94212.03;6282108;22;20527;-81
2023/10/21 06:05:16;;;;;;;2.40;1.40;;;;;;;10.55;100.00;94209.56;6309334;22;20182;-80
2023/10/21 06:07:42;;;;;;;1.40;1.40;;;;;;;10.55;100.00;94205.13;6310039;22;19995;-80
2023/10/21 06:10:08;;;;;;;2.45;2.10;;;;;;;10.55;100.00;94207.75;6309585;22;20535;-81
2023/10/21 06:12:34;;;;;;;2.65;2.45;;;;;;;10.55;100.00;94207.75;6309699;22;20051;-81
2023/10/21 06:15:00;;;;;;;1.58;1.48;;;;;;;10.56;100.00;94214.66;6309323;22;20089;-81
2023/10/21 06:17:26;;;;;;;2.40;2.10;;;;;;;10.52;100.00;94209.91;6309286;22;20003;-81
2023/10/21 06:19:52;;;;;;;1.80;1.65;;;;;;;10.53;100.00;94214.19;6308342;22;20010;-81
2023/10/21 06:22:18;;;;;;;4.43;1.95;;;;;;;10.50;100.00;94217.19;6309650;22;19999;-82
2023/10/21 06:24:43;;;;;;;1.80;1.80;;;;;;;10.50;100.00;94227.69;6309409;22;20049;-82
2023/10/21 06:27:09;;;;;;;1.75;1.65;;;;;;;10.52;100.00;94229.16;6308864;22;19999;-82
2023/10/21 06:29:35;;;;;;;2.35;1.60;;;;;;;10.51;100.00;94227.53;6282114;22;20003;-81
2023/10/21 06:32:02;;;;;;;4.05;1.60;;;;;;;10.51;100.00;94229.34;6308667;22;19999;-82
2023/10/21 06:34:29;;;;;;;2.10;1.90;;;;;;;10.54;100.00;94237.69;6310118;22;20485;-81
2023/10/21 06:36:54;;;;;;;1.50;1.40;;;;;;;10.57;100.00;94249.66;6281720;22;20007;-81
2023/10/21 06:39:20;;;;;;;1.98;1.63;;;;;;;10.58;100.00;94264.47;6309147;22;20082;-82
2023/10/21 06:41:46;;;;;;;1.85;1.73;;;;;;;10.61;100.00;94274.66;6308995;22;20003;-82
2023/10/21 06:44:14;;;;;;;1.65;1.55;;;;;;;10.63;100.00;94271.84;6309791;22;20070;-82
2023/10/21 06:46:40;;;;;;;2.25;2.05;;;;;;;10.60;100.00;94276.47;6280619;22;20006;-82
2023/10/21 06:49:05;;;;;;;1.55;1.48;;;;;;;10.64;100.00;94281.38;6310114;22;19999;-81
2023/10/21 06:51:31;;;;;;;4.10;1.60;;;;;;;10.66;100.00;94289.91;6310071;22;20042;-81
2023/10/21 06:53:57;;;;;;;1.75;1.65;;;;;;;10.67;100.00;94294.16;6310057;22;20405;-82
2023/10/21 06:56:22;;;;;;;1.77;1.48;;;;;;;10.69;100.00;94300.06;6308617;22;20018;-82
2023/10/21 06:58:48;;;;;;;1.83;1.73;;;;;;;10.72;100.00;94297.09;6310286;22;19999;-82
2023/10/21 07:01:14;;;;;;;4.63;1.77;;;;;;;10.74;100.00;94289.84;6282700;22;19999;-81
2023/10/21 07:03:40;;;;;;;4.72;2.05;;;;;;;10.78;100.00;94280.59;6282222;22;20383;-81
2023/10/21 07:06:05;;;;;;;1.80;1.65;;;;;;;10.81;100.00;94284.66;6308724;22;19995;-81
2023/10/21 07:08:33;;;;;;;2.95;2.72;;;;;;;10.85;100.00;94285.97;6281083;22;20065;-81
2023/10/21 07:10:58;;;;;;;4.72;3.38;;;;;;;10.89;100.00;94279.34;6308350;22;20301;-81
2023/10/21 07:13:24;;;;;;;3.25;2.95;;;;;;;10.89;100.00;94282.78;6309645;22;20003;-81
2023/10/21 07:15:51;;;;;;;2.42;2.33;;;;;;;10.91;100.00;94287.88;6308965;22;20017;-81
2023/10/21 07:18:17;;;;;;;8.10;7.32;;;;;;;10.95;100.00;94291.00;6309371;22;20013;-81
2023/10/21 07:20:42;;;;;;;4.13;3.83;;;;;;;10.99;100.00;94297.53;6308707;22;20035;-81
2023/10/21 07:23:08;;;;;;;16.30;14.85;;;;;;;11.00;100.00;94305.25;6309585;22;20060;-81
2023/10/21 07:25:36;;;;;;;18.17;16.48;;;;;;;11.04;100.00;94306.50;6308771;22;19999;-82
2023/10/21 07:28:04;;;;;;;7.53;6.63;;;;;;;11.11;100.00;94316.34;6309203;22;19995;-82
2023/10/21 07:30:29;;;;;;;3.72;2.70;;;;;;;11.08;100.00;94322.78;6308567;22;20006;-82
2023/10/21 07:32:55;;;;;;;5.13;3.08;;;;;;;11.09;100.00;94331.53;6309172;22;20003;-82
2023/10/21 07:35:21;;;;;;;2.53;2.40;;;;;;;11.32;100.00;94340.19;6308970;22;20082;-81
2023/10/21 07:37:46;;;;;;;2.17;2.08;;;;;;;11.15;100.00;94336.88;6309353;22;19999;-81
2023/10/21 07:40:12;;;;;;;2.20;2.00;;;;;;;11.11;100.00;94327.69;6308495;22;19995;-81
2023/10/21 07:42:38;;;;;;;2.20;1.98;;;;;;;11.10;100.00;94344.50;6309153;22;20312;-81
2023/10/21 07:45:04;;;;;;;2.80;1.83;;;;;;;11.11;100.00;94346.13;6309692;22;20071;-81
2023/10/21 07:47:30;;;;;;;2.35;2.20;;;;;;;11.22;100.00;94346.72;6309131;22;20010;-81
2023/10/21 07:49:56;;;;;;;2.42;2.10;;;;;;;11.32;100.00;94347.25;6281663;22;20074;-81
2023/10/21 07:52:22;;;;;;;3.38;2.97;;;;;;;11.37;100.00;94358.06;6308443;22;20003;-81
2023/10/21 07:54:47;;;;;;;3.33;3.13;;;;;;;11.45;100.00;94359.81;6308472;22;20301;-81
2023/10/21 07:57:16;;;;;;;4.22;3.92;;;;;;;11.51;100.00;94358.28;6308375;22;20003;-80
2023/10/21 07:59:41;;;;;;;5.95;5.20;;;;;;;11.59;100.00;94364.28;6307734;22;19999;-82
2023/10/21 08:02:07;;;;;;;4.47;3.33;;;;;;;11.64;100.00;94363.75;6309072;22;20068;-81
2023/10/21 08:04:33;;;;;;;2.42;2.33;;;;;;;11.68;100.00;94364.19;6310698;22;20445;-83
2023/10/21 08:06:58;;;;;;;3.33;3.00;;;;;;;11.71;100.00;94369.94;6308713;22;20462;-80
2023/10/21 08:09:23;;;;;;;3.10;2.80;;;;;;;11.78;100.00;94382.38;6310300;22;19999;-78
2023/10/21 08:11:49;;;;;;;3.38;2.40;;;;;;;11.81;100.00;94390.75;6280901;22;20023;-81
2023/10/21 08:14:15;;;;;;;2.13;1.50;;;;;;;11.81;100.00;94396.03;6308819;22;19999;-78
2023/10/21 08:16:42;;;;;;;1.30;1.30;;;;;;;11.80;100.00;94397.03;6307836;22;20416;-77
2023/10/21 08:19:08;;;;;;;1.48;1.38;;;;;;;11.92;100.00;94399.19;6309864;22;20673;-77
2023/10/21 08:21:33;;;;;;;2.33;1.27;;;;;;;11.92;100.00;94407.94;6310660;22;20013;-78
2023/10/21 08:24:02;;;;;;;1.60;1.50;;;;;;;11.97;100.00;94416.13;6310533;22;20006;-78
2023/10/21 08:26:28;;;;;;;1.80;1.60;;;;;;;12.10;100.00;94426.06;6310073;22;19999;-78
2023/10/21 08:28:54;;;;;;;2.63;2.33;;;;;;;12.20;100.00;94435.53;6309737;22;20003;-78
2023/10/21 08:31:20;;;;;;;2.22;2.10;;;;;;;12.23;100.00;94451.81;6310908;22;19999;-77
2023/10/21 08:33:46;;;;;;;2.03;1.92;;;;;;;12.26;100.00;94522.69;6311013;22;19999;-77
2023/10/21 08:36:18;;;;;;;3.75;2.00;;;;;;;12.26;100.00;94529.78;6310237;22;20031;-77
2023/10/21 08:38:45;;;;;;;1.75;1.65;;;;;;;12.22;100.00;94547.81;6310509;22;20006;-78
2023/10/21 08:41:14;;;;;;;3.55;1.70;;;;;;;12.14;100.00;94556.59;6310159;22;20068;-78
2023/10/21 08:43:46;;;;;;;1.85;1.75;;;;;;;12.07;100.00;94584.72;6307584;22;20003;-77
2023/10/21 08:46:16;;;;;;;2.38;1.60;;;;;;;12.07;100.00;94597.09;6308276;22;20021;-82
2023/10/21 08:48:47;;;;;;;1.83;1.73;;;;;;;12.08;100.00;94601.38;6281762;22;20066;-78
2023/10/21 08:56:24;;;;;;;10.70;9.73;;;;;;;12.07;100.00;94605.00;6297761;22;20027;-68
2023/10/21 08:58:51;;;;;;;4.88;4.40;;;;;;;12.13;100.00;94612.22;6281202;22;20487;-67
2023/10/21 09:01:16;;;;;;;3.60;2.25;;;;;;;12.23;100.00;94619.88;6308450;22;20006;-66
2023/10/21 09:03:42;;;;;;;2.13;1.92;;;;;;;12.28;100.00;94625.44;6310324;22;19999;-65
2023/10/21 09:06:12;;;;;;;2.85;2.22;;;;;;;12.29;100.00;94629.72;6309425;22;20007;-68
2023/10/21 09:08:42;;;;;;;2.95;1.70;;;;;;;12.34;100.00;94626.53;6308930;22;20049;-67
2023/10/21 09:11:13;;;;;;;2.53;1.70;;;;;;;12.37;100.00;94626.97;6308747;22;19999;-68
2023/10/21 09:13:40;;;;;;;2.25;2.05;;;;;;;12.40;100.00;94629.28;6281986;22;20077;-68
2023/10/21 09:16:23;;;;;;;1.73;1.52;;;;;;;12.36;100.00;94616.63;6308760;22;20060;-69
2023/10/21 09:19:08;;;;;;;1.17;1.13;;;;;;;12.32;100.00;94610.88;6309386;22;20594;-67
2023/10/21 09:21:38;;;;;;;2.85;1.60;;;;;;;12.38;100.00;94620.75;6309822;22;20121;-69
2023/10/21 09:24:05;;;;;;;2.80;2.17;;;;;;;12.56;100.00;94628.31;6309416;22;20429;-68
2023/10/21 09:26:34;;;;;;;2.63;2.42;;;;;;;12.70;100.00;94628.47;6309301;22;20349;-68
2023/10/21 09:29:14;;;;;;;3.08;1.60;;;;;;;12.77;100.00;94628.59;6308598;22;20023;-67
2023/10/21 09:31:46;;;;;;;2.63;1.40;;;;;;;12.85;100.00;94634.59;6309259;22;20416;-68
2023/10/21 09:34:24;;;;;;;1.25;1.15;;;;;;;12.83;100.00;94631.31;6308856;22;20017;-66
2023/10/21 09:37:01;;;;;;;1.35;1.30;;;;;;;12.85;100.00;94625.88;6309434;22;20007;-66
2023/10/21 09:39:29;;;;;;;1.35;1.23;;;;;;;12.85;100.00;94634.59;6309412;22;20007;-66
2023/10/21 09:41:54;;;;;;;1.90;1.05;;;;;;;12.90;100.00;94626.94;6309304;22;20006;-67
2023/10/21 09:44:20;;;;;;;1.05;0.93;;;;;;;13.04;100.00;94621.84;6308374;22;19999;-65
2023/10/21 09:46:47;;;;;;;1.25;1.10;;;;;;;13.15;100.00;94625.84;6280813;22;19999;-66
2023/10/21 09:49:14;;;;;;;1.40;1.30;;;;;;;13.48;100.00;94622.00;6230301;22;20026;-67
2023/10/21 09:51:46;;;;;;;1.90;1.42;;;;;;;13.58;100.00;94601.34;6309381;22;19999;-67
2023/10/21 09:54:16;;;;;;;1.30;1.25;;;;;;;13.56;100.00;94598.06;6308493;22;20002;-66
2023/10/21 09:56:42;;;;;;;1.58;1.48;;;;;;;13.56;100.00;94606.00;6307041;22;20090;-67
2023/10/21 09:59:09;;;;;;;4.38;1.70;;;;;;;13.54;100.00;94592.16;6307572;22;20006;-66
2023/10/21 10:01:39;;;;;;;1.95;1.83;;;;;;;13.42;100.00;94587.34;6307940;22;20030;-67
2023/10/21 10:04:09;;;;;;;1.80;1.55;;;;;;;13.46;100.00;94588.63;6305413;22;20003;-66
2023/10/21 10:06:37;;;;;;;1.65;1.10;;;;;;;13.47;100.00;94581.50;6306884;22;19996;-67
2023/10/21 10:09:06;;;;;;;1.30;1.20;;;;;;;13.54;100.00;94563.91;6308376;22;20096;-67
2023/10/21 10:11:34;;;;;;;1.00;1.00;;;;;;;13.66;100.00;94588.03;6308038;22;20003;-67
2023/10/21 10:14:01;;;;;;;3.50;2.22;;;;;;;13.67;100.00;94586.19;6308964;22;20019;-66
2023/10/21 10:16:28;;;;;;;4.70;4.18;;;;;;;13.80;100.00;94596.06;6280604;22;19999;-67
2023/10/21 10:18:56;;;;;;;1.88;1.77;;;;;;;13.90;100.00;94593.94;6281287;22;20053;-67
2023/10/21 10:21:21;;;;;;;3.58;3.10;;;;;;;14.01;100.00;94596.06;6307554;22;20444;-67
2023/10/21 10:23:51;;;;;;;3.00;2.80;;;;;;;14.13;100.00;94590.28;6308410;22;20125;-66
2023/10/21 10:26:37;;;;;;;1.52;1.40;;;;;;;14.14;100.00;94590.06;6308308;22;19995;-67
2023/10/21 10:29:24;;;;;;;5.00;2.90;;;;;;;14.01;100.00;94566.16;6306073;22;20339;-67
2023/10/21 10:31:51;;;;;;;7.45;6.75;;;;;;;13.95;100.00;94574.84;6307949;22;19999;-67
2023/10/21 10:34:17;;;;;;;2.13;2.03;;;;;;;14.00;100.00;94570.59;6308401;22;20022;-67
2023/10/21 10:36:45;;;;;;;1.75;1.27;;;;;;;14.17;100.00;94573.00;6308342;22;20079;-67
2023/10/21 10:39:39;;;;;;;1.67;1.38;;;;;;;14.27;100.00;94570.84;6308909;22;20040;-66
2023/10/21 10:42:05;;;;;;;1.08;0.95;;;;;;;14.30;100.00;94561.69;6307644;22;20026;-67
2023/10/21 10:44:31;;;;;;;2.67;1.20;;;;;;;14.26;100.00;94560.44;6281097;22;20010;-67
2023/10/21 10:46:57;;;;;;;1.60;1.50;;;;;;;14.26;100.00;94574.50;6306984;22;20441;-66
2023/10/21 10:49:23;;;;;;;1.67;1.60;;;;;;;14.23;100.00;94571.41;6281173;22;20024;-67
2023/10/21 10:51:48;;;;;;;1.73;1.27;;;;;;;14.26;100.00;94571.03;6308291;22;20391;-67
2023/10/21 10:54:18;;;;;;;4.30;1.83;;;;;;;14.42;100.00;94575.19;6255847;22;20416;-67
2023/10/21 10:56:44;;;;;;;1.10;1.10;;;;;;;14.48;100.00;94571.81;6279503;22;20011;-67
2023/10/21 10:59:17;;;;;;;1.77;1.67;;;;;;;14.61;100.00;94566.56;6307968;22;19995;-67
2023/10/21 11:01:44;;;;;;;1.65;1.23;;;;;;;14.74;100.00;94563.22;6307282;22;20050;-67
2023/10/21 11:04:09;;;;;;;1.95;1.60;;;;;;;14.77;100.00;94554.06;6308400;22;20002;-68
2023/10/21 11:06:36;;;;;;;1.25;1.20;;;;;;;14.86;100.00;94534.31;6307587;22;19995;-67
2023/10/21 11:09:23;;;;;;;5.22;1.65;;;;;;;14.94;100.00;94536.00;6308867;22;20108;-67
2023/10/21 11:11:54;;;;;;;3.47;1.30;;;;;;;15.09;100.00;94546.44;6308287;22;20469;-67
2023/10/21 11:14:20;;;;;;;1.83;1.50;;;;;;;15.16;100.00;94547.31;6308345;22;20062;-67
2023/10/21 11:16:49;;;;;;;2.30;1.10;;;;;;;15.20;100.00;94549.56;6308374;22;20007;-67
2023/10/21 11:19:14;;;;;;;4.00;1.30;;;;;;;15.31;100.00;94560.41;6281943;22;20421;-67
2023/10/21 11:21:41;;;;;;;1.20;1.10;;;;;;;15.13;100.00;94560.94;6308682;22;20078;-67
2023/10/21 11:24:08;;;;;;;1.58;1.33;;;;;;;15.12;100.00;94564.59;6308408;22;19999;-68
2023/10/21 11:26:34;;;;;;;2.00;1.40;;;;;;;15.07;100.00;94563.59;6306868;22;19991;-67
2023/10/21 11:29:00;;;;;;;1.75;1.30;;;;;;;14.84;100.00;94568.16;6307444;22;20500;-67